Terminal Aerodrome Forecast
Issued by NWS

Home | Current Version | Previous Version | Text Only | Print | Product List | Glossary On
Versions: 1 2 3 4 5 6 7 8 9 10 11 12 13 14 15 16 17 18 19 20 21 22 23 24 25 26 27 28 29 30 31 32 33 34 35 36 37 38 39 40 41 42
682
FTUS44 KLIX 192321
TAFHUM
TAF
KHUM 192321Z 2000/2024 24006KT P6SM SCT020 BKN060
      TEMPO 2000/2002 3SM -SHRA BKN020
     FM200600 21006KT 3SM BR BKN025
     FM200900 23005KT 1/4SM FG BKN003
     FM201600 22006KT P6SM BKN018
     FM201800 22007KT P6SM SCT035=

USA.gov is the U.S. government's official web portal to all federal, state and local government web resources and services.